Time;durP1;ratioP1;P1;durP2;ratioP2;P2;SDS_P1;SDS_P2;PMS_P1;PMS_P2;Temp;Humidity;BMP_temperature;BMP_pressure;BME280_temperature;BME280_humidity;BME280_pressure;Samples;Min_cycle;Max_cycle;Signal;HPM_P1;HPM_P2
2022/03/11 00:01:59;;;;;;;7.07;4.43;;;;;;;;;;5108767;28;20039;-71
2022/03/11 00:04:24;;;;;;;7.20;5.30;;;;;;;;;;5111265;28;20020;-71
2022/03/11 00:06:49;;;;;;;9.77;5.07;;;;;;;;;;5110627;28;20016;-71
2022/03/11 00:09:14;;;;;;;10.77;4.87;;;;;;;;;;5112949;28;20039;-71
2022/03/11 00:11:40;;;;;;;8.13;4.47;;;;;;;;;;5103150;28;20015;-71
2022/03/11 00:14:06;;;;;;;6.33;4.27;;;;;;;;;;5113907;28;20020;-70
2022/03/11 00:16:31;;;;;;;9.30;5.00;;;;;;;;;;5107031;28;20020;-70
2022/03/11 00:18:56;;;;;;;10.20;5.30;;;;;;;;;;5102221;28;20031;-70
2022/03/11 00:21:21;;;;;;;7.67;3.80;;;;;;;;;;5104318;28;20035;-70
2022/03/11 00:23:46;;;;;;;8.83;5.10;;;;;;;;;;5106544;28;20031;-70
2022/03/11 00:26:12;;;;;;;8.60;4.90;;;;;;;;;;5101934;28;20065;-71
2022/03/11 00:28:37;;;;;;;7.43;4.60;;;;;;;;;;5100674;28;20411;-70
2022/03/11 00:31:04;;;;;;;8.63;4.93;;;;;;;;;;5110124;28;20024;-70
2022/03/11 00:33:29;;;;;;;8.77;4.57;;;;;;;;;;5109302;28;20020;-70
2022/03/11 00:35:55;;;;;;;5.93;4.40;;;;;;;;;;5113319;28;20011;-69
2022/03/11 00:38:20;;;;;;;8.53;3.90;;;;;;;;;;5114446;28;20249;-70
2022/03/11 00:40:45;;;;;;;6.37;4.03;;;;;;;;;;5104729;28;20027;-70
2022/03/11 00:43:10;;;;;;;7.07;4.23;;;;;;;;;;5093710;28;20412;-70
2022/03/11 00:45:35;;;;;;;8.83;4.30;;;;;;;;;;5096482;28;20028;-70
2022/03/11 00:48:00;;;;;;;8.57;4.10;;;;;;;;;;5100648;28;20027;-70
2022/03/11 00:50:26;;;;;;;7.17;4.70;;;;;;;;;;5099185;28;20043;-71
2022/03/11 00:52:51;;;;;;;7.67;4.40;;;;;;;;;;5105886;28;20034;-71
2022/03/11 00:55:17;;;;;;;7.03;4.20;;;;;;;;;;5106196;28;20081;-71
2022/03/11 00:57:42;;;;;;;8.53;4.93;;;;;;;;;;5100695;28;20019;-71
2022/03/11 01:00:08;;;;;;;8.63;4.27;;;;;;;;;;5111732;28;20034;-71
2022/03/11 01:02:34;;;;;;;6.57;3.97;;;;;;;;;;5107540;28;20471;-71
2022/03/11 01:04:59;;;;;;;6.97;3.83;;;;;;;;;;5096433;28;20028;-71
2022/03/11 01:07:24;;;;;;;6.53;3.67;;;;;;;;;;5113036;28;20100;-70
2022/03/11 01:09:49;;;;;;;7.83;3.93;;;;;;;;;;5112992;28;20035;-71
2022/03/11 01:12:15;;;;;;;6.67;3.70;;;;;;;;;;5105657;28;20051;-71
2022/03/11 01:14:40;;;;;;;7.67;3.43;;;;;;;;;;5111499;28;20106;-71
2022/03/11 01:17:05;;;;;;;6.50;3.00;;;;;;;;;;5111453;28;20019;-71
2022/03/11 01:19:30;;;;;;;6.07;3.13;;;;;;;;;;5096738;28;20020;-71
2022/03/11 01:21:56;;;;;;;6.17;3.20;;;;;;;;;;5106339;28;20028;-70
2022/03/11 01:24:22;;;;;;;5.23;2.90;;;;;;;;;;5106444;28;20464;-71
2022/03/11 01:26:47;;;;;;;3.50;2.60;;;;;;;;;;5108851;28;20019;-69
2022/03/11 01:29:12;;;;;;;5.80;2.90;;;;;;;;;;5104504;28;20498;-70
2022/03/11 01:31:37;;;;;;;6.87;3.33;;;;;;;;;;5101782;28;20024;-70
2022/03/11 01:34:08;;;;;;;4.53;2.97;;;;;;;;;;5111998;28;20395;-71
2022/03/11 01:36:33;;;;;;;6.93;3.77;;;;;;;;;;5101388;28;20046;-70
2022/03/11 01:38:58;;;;;;;6.20;2.83;;;;;;;;;;5108205;28;20414;-68
2022/03/11 01:41:23;;;;;;;5.23;2.73;;;;;;;;;;5110496;28;20572;-70
2022/03/11 01:43:50;;;;;;;4.93;2.50;;;;;;;;;;5110571;28;20016;-70
2022/03/11 01:46:15;;;;;;;4.80;2.93;;;;;;;;;;5113665;28;20016;-70
2022/03/11 01:48:40;;;;;;;5.47;2.70;;;;;;;;;;5097329;28;20120;-71
2022/03/11 01:51:06;;;;;;;5.87;2.57;;;;;;;;;;5092915;28;20156;-71
2022/03/11 01:53:31;;;;;;;6.27;3.03;;;;;;;;;;5098256;28;20027;-70
2022/03/11 01:55:56;;;;;;;6.03;3.43;;;;;;;;;;5105073;28;20074;-70
2022/03/11 01:58:22;;;;;;;4.73;2.60;;;;;;;;;;5102096;28;20038;-70
2022/03/11 02:00:47;;;;;;;5.10;2.60;;;;;;;;;;5096922;28;20042;-71
2022/03/11 02:03:13;;;;;;;5.67;3.10;;;;;;;;;;5102859;28;20392;-70
2022/03/11 02:05:38;;;;;;;4.93;2.83;;;;;;;;;;5096650;28;20119;-72
2022/03/11 02:08:03;;;;;;;5.80;3.00;;;;;;;;;;5097920;28;20024;-70
2022/03/11 02:10:30;;;;;;;6.53;2.93;;;;;;;;;;5092015;28;20035;-69
2022/03/11 02:12:55;;;;;;;6.07;2.77;;;;;;;;;;5102154;28;20039;-69
2022/03/11 02:15:21;;;;;;;5.00;2.90;;;;;;;;;;5108748;28;20032;-70
2022/03/11 02:17:46;;;;;;;6.23;2.80;;;;;;;;;;5107070;28;20105;-69
2022/03/11 02:20:11;;;;;;;5.43;3.13;;;;;;;;;;5107491;28;20033;-70
2022/03/11 02:22:39;;;;;;;5.27;2.90;;;;;;;;;;5109117;28;20043;-69
2022/03/11 02:25:05;;;;;;;6.77;3.37;;;;;;;;;;5105640;28;20484;-70
2022/03/11 02:27:34;;;;;;;5.90;3.37;;;;;;;;;;5107962;28;20019;-69
2022/03/11 02:29:59;;;;;;;4.23;3.07;;;;;;;;;;5095548;28;20101;-70
2022/03/11 02:32:24;;;;;;;5.43;3.40;;;;;;;;;;5101144;28;20047;-70
2022/03/11 02:34:49;;;;;;;4.97;2.80;;;;;;;;;;5108282;28;20025;-71
2022/03/11 02:37:14;;;;;;;5.07;3.20;;;;;;;;;;5111296;28;20023;-69
2022/03/11 02:39:39;;;;;;;6.77;2.90;;;;;;;;;;5099144;28;20503;-70
2022/03/11 02:42:05;;;;;;;4.17;2.57;;;;;;;;;;5103598;28;20580;-71
2022/03/11 02:44:31;;;;;;;6.43;3.50;;;;;;;;;;5105855;28;20032;-70
2022/03/11 02:46:59;;;;;;;6.47;3.30;;;;;;;;;;5105605;28;20036;-69
2022/03/11 02:49:24;;;;;;;7.17;3.57;;;;;;;;;;5104102;28;20055;-70
2022/03/11 02:51:49;;;;;;;6.73;3.77;;;;;;;;;;5105229;28;20055;-70
2022/03/11 02:54:15;;;;;;;5.63;3.30;;;;;;;;;;5102859;28;20085;-70
2022/03/11 02:56:40;;;;;;;6.57;3.37;;;;;;;;;;5105815;28;20040;-70
2022/03/11 02:59:05;;;;;;;8.10;3.00;;;;;;;;;;5109579;28;20024;-71
2022/03/11 03:01:32;;;;;;;6.27;3.47;;;;;;;;;;5109467;28;21345;-70
2022/03/11 03:03:57;;;;;;;5.83;3.70;;;;;;;;;;5103367;28;20020;-70
2022/03/11 03:06:22;;;;;;;6.83;3.60;;;;;;;;;;5099926;28;20161;-70
2022/03/11 03:08:47;;;;;;;7.33;3.27;;;;;;;;;;5105148;28;20106;-70
2022/03/11 03:11:13;;;;;;;5.47;3.23;;;;;;;;;;5102443;28;20024;-70
2022/03/11 03:13:38;;;;;;;5.70;3.20;;;;;;;;;;5093156;28;20030;-70
2022/03/11 03:16:03;;;;;;;5.73;3.33;;;;;;;;;;5094063;28;20032;-69
2022/03/11 03:18:30;;;;;;;6.70;3.20;;;;;;;;;;5096885;28;20357;-70
2022/03/11 03:20:55;;;;;;;8.47;3.73;;;;;;;;;;5111274;28;20047;-70
2022/03/11 03:23:20;;;;;;;7.20;3.37;;;;;;;;;;5103777;28;20059;-70
2022/03/11 03:25:45;;;;;;;7.80;3.63;;;;;;;;;;5103993;28;20027;-67
2022/03/11 03:28:12;;;;;;;5.83;3.30;;;;;;;;;;5106785;28;20070;-70
2022/03/11 03:30:37;;;;;;;6.93;3.63;;;;;;;;;;5103565;28;20501;-70
2022/03/11 03:33:02;;;;;;;5.57;3.40;;;;;;;;;;5106839;28;20028;-71
2022/03/11 03:35:27;;;;;;;5.93;3.50;;;;;;;;;;5099418;28;20039;-70
2022/03/11 03:37:52;;;;;;;10.23;6.63;;;;;;;;;;5105023;28;20381;-70
2022/03/11 03:40:18;;;;;;;7.83;3.80;;;;;;;;;;5098318;28;20034;-70
2022/03/11 03:42:46;;;;;;;7.13;3.93;;;;;;;;;;5110050;28;20088;-69
2022/03/11 03:45:11;;;;;;;8.00;3.90;;;;;;;;;;5100680;28;20145;-70
2022/03/11 03:47:36;;;;;;;6.73;4.03;;;;;;;;;;5102094;28;20467;-69
2022/03/11 03:50:02;;;;;;;7.67;4.00;;;;;;;;;;5100616;28;20034;-69
2022/03/11 03:52:28;;;;;;;8.43;4.00;;;;;;;;;;5111123;28;20023;-69
2022/03/11 03:54:53;;;;;;;7.27;4.03;;;;;;;;;;5101019;28;20049;-70
2022/03/11 03:57:19;;;;;;;8.80;3.73;;;;;;;;;;5099734;28;20502;-70
2022/03/11 03:59:44;;;;;;;6.77;3.70;;;;;;;;;;5106777;28;20024;-70
2022/03/11 04:02:09;;;;;;;7.43;3.83;;;;;;;;;;5108326;28;20122;-70
2022/03/11 04:04:34;;;;;;;8.43;3.67;;;;;;;;;;5095592;28;20929;-69
2022/03/11 04:07:00;;;;;;;7.50;3.83;;;;;;;;;;5108965;28;20383;-71
2022/03/11 04:09:25;;;;;;;6.30;3.50;;;;;;;;;;5106424;28;20369;-70
2022/03/11 04:11:50;;;;;;;6.70;3.73;;;;;;;;;;5099837;28;20088;-70
2022/03/11 04:14:15;;;;;;;6.53;3.73;;;;;;;;;;5113339;28;20036;-69
2022/03/11 04:16:41;;;;;;;7.90;4.13;;;;;;;;;;5100698;28;20016;-69
2022/03/11 04:19:06;;;;;;;7.30;3.90;;;;;;;;;;5113736;28;20028;-69
2022/03/11 04:21:31;;;;;;;7.43;3.80;;;;;;;;;;5109501;28;20031;-70
2022/03/11 04:23:56;;;;;;;5.33;3.67;;;;;;;;;;5108000;28;20040;-70
2022/03/11 04:26:21;;;;;;;6.27;3.57;;;;;;;;;;5109102;28;20063;-70
2022/03/11 04:28:47;;;;;;;7.87;3.43;;;;;;;;;;5110830;28;20054;-70
2022/03/11 04:31:12;;;;;;;7.63;4.07;;;;;;;;;;5105937;28;20063;-70
2022/03/11 04:33:39;;;;;;;5.77;3.57;;;;;;;;;;5111426;28;20107;-70
2022/03/11 04:36:04;;;;;;;7.70;4.00;;;;;;;;;;5114240;28;20043;-70
2022/03/11 04:38:30;;;;;;;5.53;3.43;;;;;;;;;;5103211;28;20472;-70
2022/03/11 04:40:55;;;;;;;6.47;4.03;;;;;;;;;;5098194;28;20073;-71
2022/03/11 04:43:20;;;;;;;5.63;3.53;;;;;;;;;;5112594;28;20051;-70
2022/03/11 04:45:46;;;;;;;8.93;3.67;;;;;;;;;;5104166;28;20476;-71
2022/03/11 04:48:11;;;;;;;6.40;3.47;;;;;;;;;;5105186;28;20506;-70
2022/03/11 04:50:37;;;;;;;6.80;3.80;;;;;;;;;;5106001;28;20031;-70
2022/03/11 04:53:03;;;;;;;5.67;3.57;;;;;;;;;;5111114;28;20479;-70
2022/03/11 04:55:28;;;;;;;6.50;3.77;;;;;;;;;;5107536;28;20042;-70
2022/03/11 04:57:53;;;;;;;5.97;3.70;;;;;;;;;;5101123;28;20122;-70
2022/03/11 05:00:18;;;;;;;6.70;3.70;;;;;;;;;;5109143;28;20387;-70
2022/03/11 05:02:46;;;;;;;6.93;3.47;;;;;;;;;;5106280;28;20499;-70
2022/03/11 05:05:12;;;;;;;7.13;3.87;;;;;;;;;;5113761;28;20016;-70
2022/03/11 05:07:38;;;;;;;8.17;3.93;;;;;;;;;;5095261;28;20116;-68
2022/03/11 05:10:04;;;;;;;6.40;3.53;;;;;;;;;;5112112;28;20059;-70
2022/03/11 05:12:30;;;;;;;7.20;3.83;;;;;;;;;;5111151;28;20016;-70
2022/03/11 05:14:55;;;;;;;6.27;3.60;;;;;;;;;;5102640;28;20023;-71
2022/03/11 05:17:20;;;;;;;7.10;3.70;;;;;;;;;;5096192;28;20115;-70
2022/03/11 05:19:45;;;;;;;6.60;3.13;;;;;;;;;;5111168;28;20031;-70
2022/03/11 05:22:11;;;;;;;7.73;4.43;;;;;;;;;;5098317;28;20028;-70
2022/03/11 05:24:36;;;;;;;6.57;3.30;;;;;;;;;;5106831;28;20113;-69
2022/03/11 05:27:02;;;;;;;8.10;4.23;;;;;;;;;;5111581;28;20077;-70
2022/03/11 05:29:28;;;;;;;4.53;3.07;;;;;;;;;;5111982;28;20027;-70
2022/03/11 05:31:53;;;;;;;7.37;4.00;;;;;;;;;;5111596;28;20084;-70
2022/03/11 05:34:18;;;;;;;5.10;3.33;;;;;;;;;;5105470;28;20115;-70
2022/03/11 05:36:43;;;;;;;6.03;3.50;;;;;;;;;;5097851;28;20058;-71
2022/03/11 05:39:09;;;;;;;6.47;3.60;;;;;;;;;;5099407;28;20457;-70
2022/03/11 05:41:34;;;;;;;6.33;3.80;;;;;;;;;;5098750;28;20459;-70
2022/03/11 05:43:59;;;;;;;8.03;3.90;;;;;;;;;;5113034;28;20046;-70
2022/03/11 05:46:24;;;;;;;7.40;3.67;;;;;;;;;;5100787;28;20202;-71
2022/03/11 05:48:49;;;;;;;8.93;3.90;;;;;;;;;;5107553;28;20081;-71
2022/03/11 05:51:15;;;;;;;5.07;3.33;;;;;;;;;;5100677;28;20116;-72
2022/03/11 05:53:40;;;;;;;15.40;3.43;;;;;;;;;;5104472;28;20019;-70
2022/03/11 05:56:05;;;;;;;8.97;3.70;;;;;;;;;;5103333;28;20051;-72
2022/03/11 05:58:30;;;;;;;6.13;3.53;;;;;;;;;;5107624;28;20033;-70
2022/03/11 06:00:55;;;;;;;7.47;3.87;;;;;;;;;;5111137;28;20030;-68
2022/03/11 06:03:20;;;;;;;6.67;3.90;;;;;;;;;;5107627;28;20061;-71
2022/03/11 06:05:46;;;;;;;6.67;3.73;;;;;;;;;;5112903;28;20035;-69
2022/03/11 06:08:11;;;;;;;7.43;3.57;;;;;;;;;;5111493;28;20391;-70
2022/03/11 06:10:36;;;;;;;6.17;3.73;;;;;;;;;;5084407;28;20038;-69
2022/03/11 06:13:02;;;;;;;6.80;3.20;;;;;;;;;;5106406;28;20032;-70
2022/03/11 06:15:27;;;;;;;6.53;3.33;;;;;;;;;;5109598;28;20027;-69
2022/03/11 06:17:54;;;;;;;9.10;3.70;;;;;;;;;;5105072;28;20145;-69
2022/03/11 06:20:20;;;;;;;6.40;3.97;;;;;;;;;;5109036;28;20035;-69
2022/03/11 06:22:48;;;;;;;6.37;3.27;;;;;;;;;;5097700;28;20563;-69
2022/03/11 06:25:14;;;;;;;5.77;3.30;;;;;;;;;;5101180;28;20030;-70
2022/03/11 06:27:40;;;;;;;5.90;3.63;;;;;;;;;;5096253;28;20020;-71
2022/03/11 06:30:05;;;;;;;7.20;3.77;;;;;;;;;;5110356;28;20024;-70
2022/03/11 06:32:30;;;;;;;8.20;3.57;;;;;;;;;;5108757;28;20028;-69
2022/03/11 06:34:56;;;;;;;6.60;3.70;;;;;;;;;;5104409;28;20027;-69
2022/03/11 06:37:21;;;;;;;7.87;3.80;;;;;;;;;;5092399;28;20031;-70
2022/03/11 06:39:46;;;;;;;5.57;3.10;;;;;;;;;;5093381;28;20089;-70
2022/03/11 06:42:11;;;;;;;9.27;4.07;;;;;;;;;;5101477;28;20023;-69
2022/03/11 06:44:37;;;;;;;9.10;3.70;;;;;;;;;;5108433;28;20024;-69
2022/03/11 06:47:02;;;;;;;12.57;3.40;;;;;;;;;;5105929;28;20078;-69
2022/03/11 06:49:27;;;;;;;6.63;3.00;;;;;;;;;;5108665;28;20112;-69
2022/03/11 06:51:52;;;;;;;7.53;4.23;;;;;;;;;;5107357;28;20019;-70
2022/03/11 06:54:18;;;;;;;7.33;4.03;;;;;;;;;;5103715;28;20466;-70
2022/03/11 06:56:43;;;;;;;10.37;4.10;;;;;;;;;;5108447;28;20384;-70
2022/03/11 06:59:08;;;;;;;7.03;3.77;;;;;;;;;;5110625;28;20046;-70
2022/03/11 07:01:33;;;;;;;9.90;2.90;;;;;;;;;;5093677;28;20035;-70
2022/03/11 07:04:00;;;;;;;6.10;3.70;;;;;;;;;;5111133;28;20043;-68
2022/03/11 07:06:26;;;;;;;12.67;4.20;;;;;;;;;;5103320;28;20076;-69
2022/03/11 07:08:51;;;;;;;8.70;3.73;;;;;;;;;;5110238;28;20020;-69
2022/03/11 07:11:16;;;;;;;12.43;3.90;;;;;;;;;;5098621;28;20039;-70
2022/03/11 07:13:44;;;;;;;6.77;3.93;;;;;;;;;;5105782;28;20499;-69
2022/03/11 07:16:13;;;;;;;7.40;4.47;;;;;;;;;;5101937;28;20169;-69
2022/03/11 07:18:38;;;;;;;6.33;3.70;;;;;;;;;;5093796;28;20028;-69
2022/03/11 07:21:03;;;;;;;8.63;4.47;;;;;;;;;;5102906;28;20439;-70
2022/03/11 07:23:29;;;;;;;5.97;2.93;;;;;;;;;;5111060;28;20032;-70
2022/03/11 07:25:54;;;;;;;8.10;4.60;;;;;;;;;;5105676;28;20086;-70
2022/03/11 07:28:20;;;;;;;7.40;3.87;;;;;;;;;;5110315;28;20093;-69
2022/03/11 07:30:45;;;;;;;8.73;3.30;;;;;;;;;;5110676;28;20027;-70
2022/03/11 07:33:12;;;;;;;7.73;3.77;;;;;;;;;;5104141;28;20023;-67
2022/03/11 07:35:37;;;;;;;8.87;4.00;;;;;;;;;;5107583;28;20027;-70
2022/03/11 07:38:02;;;;;;;6.00;3.40;;;;;;;;;;5109557;28;20028;-70
2022/03/11 07:40:27;;;;;;;6.37;3.60;;;;;;;;;;5111185;28;20031;-70
2022/03/11 07:42:52;;;;;;;5.57;3.47;;;;;;;;;;5111103;28;20433;-70
2022/03/11 07:45:18;;;;;;;5.97;3.80;;;;;;;;;;5110981;28;20453;-70
2022/03/11 07:47:44;;;;;;;5.57;3.43;;;;;;;;;;5115365;28;20023;-70
2022/03/11 07:50:10;;;;;;;5.43;3.33;;;;;;;;;;5098103;28;20474;-70
2022/03/11 07:52:37;;;;;;;6.87;3.50;;;;;;;;;;5104618;28;20020;-69
2022/03/11 07:55:02;;;;;;;6.97;3.60;;;;;;;;;;5105997;28;20028;-70
2022/03/11 07:57:27;;;;;;;7.50;3.37;;;;;;;;;;5110565;28;20518;-71
2022/03/11 07:59:52;;;;;;;8.03;3.40;;;;;;;;;;5107638;28;20035;-70
2022/03/11 08:02:20;;;;;;;10.50;4.73;;;;;;;;;;5095215;28;20404;-71
2022/03/11 08:04:45;;;;;;;5.17;3.43;;;;;;;;;;5112529;28;20106;-70
2022/03/11 08:07:11;;;;;;;11.13;4.00;;;;;;;;;;5104980;28;20105;-67
2022/03/11 08:09:38;;;;;;;6.50;3.23;;;;;;;;;;5094963;28;20437;-69
2022/03/11 08:12:03;;;;;;;6.93;3.30;;;;;;;;;;5101940;28;20019;-70
2022/03/11 08:14:29;;;;;;;7.43;3.90;;;;;;;;;;5102526;28;20024;-70
2022/03/11 08:16:54;;;;;;;6.10;3.77;;;;;;;;;;5104751;28;20019;-70
2022/03/11 08:19:19;;;;;;;8.33;3.80;;;;;;;;;;5102213;28;20027;-70
2022/03/11 08:21:44;;;;;;;9.63;3.37;;;;;;;;;;5109671;28;20035;-70
2022/03/11 08:24:10;;;;;;;5.67;3.20;;;;;;;;;;5107332;28;20066;-69
2022/03/11 08:26:35;;;;;;;9.33;3.47;;;;;;;;;;5105399;28;20095;-70
2022/03/11 08:29:00;;;;;;;5.73;3.27;;;;;;;;;;5107225;27;20016;-68
2022/03/11 08:31:25;;;;;;;7.07;3.67;;;;;;;;;;5113675;28;20383;-68
2022/03/11 08:33:50;;;;;;;5.47;3.23;;;;;;;;;;5092086;28;20503;-69
2022/03/11 08:36:16;;;;;;;5.93;3.10;;;;;;;;;;5112942;28;20487;-69
2022/03/11 08:38:41;;;;;;;7.27;2.90;;;;;;;;;;5104368;28;20567;-70
2022/03/11 08:41:08;;;;;;;4.53;3.07;;;;;;;;;;5112731;28;20020;-70
2022/03/11 08:43:34;;;;;;;5.40;3.00;;;;;;;;;;5113483;28;20119;-70
2022/03/11 08:46:01;;;;;;;4.33;2.53;;;;;;;;;;5113055;28;20027;-70
2022/03/11 08:48:28;;;;;;;6.60;3.20;;;;;;;;;;5112808;28;20008;-70
2022/03/11 08:50:53;;;;;;;6.17;3.20;;;;;;;;;;5098152;28;20944;-69
2022/03/11 08:53:18;;;;;;;8.83;3.83;;;;;;;;;;5108032;28;20024;-68
2022/03/11 08:55:44;;;;;;;9.20;2.77;;;;;;;;;;5106439;28;20044;-70
2022/03/11 08:58:09;;;;;;;7.60;3.00;;;;;;;;;;5110963;28;20024;-70
2022/03/11 09:00:35;;;;;;;3.27;2.80;;;;;;;;;;5112522;28;20467;-70
2022/03/11 09:03:00;;;;;;;5.07;3.13;;;;;;;;;;5103038;28;20314;-68
2022/03/11 09:05:25;;;;;;;5.40;3.50;;;;;;;;;;5113287;28;20460;-69
2022/03/11 09:07:51;;;;;;;5.13;3.20;;;;;;;;;;5112859;28;20106;-69
2022/03/11 09:10:18;;;;;;;6.60;3.30;;;;;;;;;;5111936;28;20024;-69
2022/03/11 09:12:43;;;;;;;5.30;2.73;;;;;;;;;;5110089;28;20070;-70
2022/03/11 09:15:10;;;;;;;6.07;2.90;;;;;;;;;;5092753;28;20056;-70
2022/03/11 09:17:35;;;;;;;6.43;2.90;;;;;;;;;;5103931;28;20034;-69
2022/03/11 09:20:03;;;;;;;5.70;3.33;;;;;;;;;;5112916;28;20446;-69
2022/03/11 09:22:29;;;;;;;5.03;2.77;;;;;;;;;;5098180;28;20020;-70
2022/03/11 09:24:54;;;;;;;7.17;3.50;;;;;;;;;;5106807;28;20023;-68
2022/03/11 09:27:22;;;;;;;4.47;2.70;;;;;;;;;;5099529;28;20020;-70
2022/03/11 09:29:48;;;;;;;4.30;2.50;;;;;;;;;;5112213;28;20019;-69
2022/03/11 09:32:13;;;;;;;3.77;2.80;;;;;;;;;;5113181;28;20080;-69
2022/03/11 09:34:40;;;;;;;3.50;2.33;;;;;;;;;;5107990;28;20503;-69
2022/03/11 09:37:06;;;;;;;6.97;3.30;;;;;;;;;;5096513;28;20518;-70
2022/03/11 09:39:31;;;;;;;5.07;3.50;;;;;;;;;;5093808;28;20016;-70
2022/03/11 09:41:56;;;;;;;7.17;3.07;;;;;;;;;;5104033;28;20020;-70
2022/03/11 09:44:24;;;;;;;4.87;2.80;;;;;;;;;;5100276;27;20413;-69
2022/03/11 09:46:50;;;;;;;4.60;2.70;;;;;;;;;;5097903;28;20028;-69
2022/03/11 09:49:16;;;;;;;4.77;2.10;;;;;;;;;;5110670;28;20023;-70
2022/03/11 09:51:41;;;;;;;3.60;2.33;;;;;;;;;;5110996;28;20027;-70
2022/03/11 09:54:07;;;;;;;5.33;2.73;;;;;;;;;;5096321;27;20045;-70
2022/03/11 09:56:36;;;;;;;6.93;2.50;;;;;;;;;;5105839;28;20122;-69
2022/03/11 09:59:02;;;;;;;11.23;2.70;;;;;;;;;;5099563;28;20027;-69
2022/03/11 10:01:27;;;;;;;14.33;3.07;;;;;;;;;;5107226;28;20019;-69
2022/03/11 10:03:53;;;;;;;6.13;2.57;;;;;;;;;;5106812;28;20118;-69
2022/03/11 10:06:38;;;;;;;4.90;2.50;;;;;;;;;;5105858;28;20119;-70
2022/03/11 10:09:04;;;;;;;5.37;2.30;;;;;;;;;;5092653;28;20028;-70
2022/03/11 10:11:29;;;;;;;3.10;2.23;;;;;;;;;;5104932;28;20439;-70
2022/03/11 10:14:03;;;;;;;7.93;2.50;;;;;;;;;;5110257;28;20019;-70
2022/03/11 10:16:29;;;;;;;6.00;2.77;;;;;;;;;;5111990;28;20027;-70
2022/03/11 10:18:58;;;;;;;5.57;2.33;;;;;;;;;;5099871;28;20039;-69
2022/03/11 10:21:34;;;;;;;4.87;2.40;;;;;;;;;;5107816;28;20497;-69
2022/03/11 10:24:01;;;;;;;5.67;2.80;;;;;;;;;;5105059;28;20035;-67
2022/03/11 10:26:29;;;;;;;9.37;2.40;;;;;;;;;;5101817;28;20028;-70
2022/03/11 10:28:58;;;;;;;6.47;3.07;;;;;;;;;;5083043;28;20039;-70
2022/03/11 10:31:34;;;;;;;12.20;3.37;;;;;;;;;;5098847;28;20123;-70
2022/03/11 10:34:12;;;;;;;4.67;2.53;;;;;;;;;;5103415;28;20115;-70
2022/03/11 10:36:37;;;;;;;6.50;3.28;;;;;;;;;;5104522;28;20038;-70
2022/03/11 10:39:11;;;;;;;6.40;3.55;;;;;;;;;;5091935;28;20028;-67
2022/03/11 10:41:36;;;;;;;7.78;3.42;;;;;;;;;;5104642;28;20027;-69
2022/03/11 10:44:04;;;;;;;5.18;3.15;;;;;;;;;;5091923;28;20035;-69
2022/03/11 10:46:29;;;;;;;9.20;3.42;;;;;;;;;;5092607;28;20034;-69
2022/03/11 10:48:56;;;;;;;5.43;3.30;;;;;;;;;;5096647;28;20028;-69
2022/03/11 10:51:26;;;;;;;5.63;3.38;;;;;;;;;;5100784;28;20213;-69
2022/03/11 10:53:51;;;;;;;5.18;3.50;;;;;;;;;;5106073;28;20049;-69
2022/03/11 10:56:36;;;;;;;8.68;3.70;;;;;;;;;;5096070;28;20040;-70
2022/03/11 10:59:07;;;;;;;4.80;3.23;;;;;;;;;;5108991;28;20028;-70
2022/03/11 11:01:40;;;;;;;6.10;3.35;;;;;;;;;;5110971;28;20272;-70
2022/03/11 11:04:07;;;;;;;4.60;3.03;;;;;;;;;;5107914;28;20095;-69
2022/03/11 11:06:33;;;;;;;5.43;3.45;;;;;;;;;;5102025;28;20024;-69
2022/03/11 11:08:58;;;;;;;4.85;3.40;;;;;;;;;;5097474;28;20032;-68
2022/03/11 11:11:23;;;;;;;7.05;3.65;;;;;;;;;;5108914;28;20544;-70
2022/03/11 11:13:49;;;;;;;8.65;3.80;;;;;;;;;;5111101;28;20120;-70
2022/03/11 11:16:15;;;;;;;5.53;3.80;;;;;;;;;;5111436;28;20053;-70
2022/03/11 11:18:44;;;;;;;5.43;3.28;;;;;;;;;;5107516;28;20024;-70
2022/03/11 11:21:10;;;;;;;6.05;3.47;;;;;;;;;;5095257;28;20573;-69
2022/03/11 11:23:36;;;;;;;16.45;4.07;;;;;;;;;;5110468;28;20028;-69
2022/03/11 11:26:02;;;;;;;5.40;3.53;;;;;;;;;;5107658;28;20770;-70
2022/03/11 11:28:28;;;;;;;6.45;3.45;;;;;;;;;;5112507;28;20012;-70
2022/03/11 11:30:54;;;;;;;7.60;4.20;;;;;;;;;;5097507;28;20028;-68
2022/03/11 11:33:19;;;;;;;7.45;3.80;;;;;;;;;;5103571;28;20031;-69
2022/03/11 11:35:45;;;;;;;10.55;3.80;;;;;;;;;;5116219;28;20165;-69
2022/03/11 11:38:30;;;;;;;5.57;4.20;;;;;;;;;;5115181;28;20028;-69
2022/03/11 11:40:57;;;;;;;6.57;3.90;;;;;;;;;;5112617;28;20040;-69
2022/03/11 11:43:30;;;;;;;5.43;3.53;;;;;;;;;;5112777;28;20032;-69
2022/03/11 11:46:01;;;;;;;12.77;4.70;;;;;;;;;;5115231;28;20413;-70
2022/03/11 11:48:41;;;;;;;6.30;4.30;;;;;;;;;;5109125;28;20026;-70
2022/03/11 11:51:07;;;;;;;6.10;4.18;;;;;;;;;;5111113;28;20034;-71
2022/03/11 11:53:32;;;;;;;6.75;4.13;;;;;;;;;;5099204;28;20027;-70
2022/03/11 11:55:58;;;;;;;4.88;4.32;;;;;;;;;;5101054;28;20082;-70
2022/03/11 11:58:23;;;;;;;5.22;4.50;;;;;;;;;;5095184;28;20065;-70
2022/03/11 12:00:54;;;;;;;5.47;4.63;;;;;;;;;;5094837;28;20023;-70
2022/03/11 12:03:19;;;;;;;4.93;4.43;;;;;;;;;;5112498;27;20481;-70
2022/03/11 12:05:45;;;;;;;7.70;4.40;;;;;;;;;;5113372;28;20025;-70
2022/03/11 12:08:31;;;;;;;7.57;4.45;;;;;;;;;;5113438;28;20299;-68
2022/03/11 12:10:56;;;;;;;5.65;4.30;;;;;;;;;;5105612;28;20433;-70
2022/03/11 12:13:35;;;;;;;4.50;4.10;;;;;;;;;;5107899;28;20038;-69
2022/03/11 12:16:01;;;;;;;7.30;4.75;;;;;;;;;;5109332;28;20047;-68
2022/03/11 12:18:34;;;;;;;5.22;4.70;;;;;;;;;;5107696;28;20015;-70
2022/03/11 12:20:59;;;;;;;7.82;4.63;;;;;;;;;;5110917;28;20028;-69
2022/03/11 12:23:30;;;;;;;4.95;4.45;;;;;;;;;;5111211;28;20032;-69
2022/03/11 12:25:59;;;;;;;4.78;4.25;;;;;;;;;;5102550;28;20070;-69
2022/03/11 12:28:24;;;;;;;10.38;5.15;;;;;;;;;;5110872;28;20016;-69
2022/03/11 12:30:54;;;;;;;4.05;3.67;;;;;;;;;;5113399;28;20077;-69
2022/03/11 12:33:20;;;;;;;4.22;3.83;;;;;;;;;;5092366;28;20021;-68
2022/03/11 12:35:46;;;;;;;5.78;4.00;;;;;;;;;;5111076;28;20042;-69
2022/03/11 12:38:13;;;;;;;5.90;3.80;;;;;;;;;;5100147;28;20058;-70
2022/03/11 12:40:39;;;;;;;4.18;3.55;;;;;;;;;;5094875;28;20026;-69
2022/03/11 12:43:05;;;;;;;6.07;3.88;;;;;;;;;;5108710;28;20032;-70
2022/03/11 12:45:41;;;;;;;7.40;3.72;;;;;;;;;;5111720;28;20027;-70
2022/03/11 12:48:07;;;;;;;5.18;3.45;;;;;;;;;;5107859;28;20043;-69
2022/03/11 12:50:32;;;;;;;5.13;3.83;;;;;;;;;;5110078;28;20012;-70
2022/03/11 12:52:58;;;;;;;6.82;4.10;;;;;;;;;;5100257;28;20521;-70
2022/03/11 12:55:25;;;;;;;6.85;4.00;;;;;;;;;;5106802;28;20016;-70
2022/03/11 12:57:54;;;;;;;5.55;3.92;;;;;;;;;;5109059;28;20024;-70
2022/03/11 13:00:23;;;;;;;6.45;3.22;;;;;;;;;;5113815;28;20707;-70
2022/03/11 13:02:49;;;;;;;7.05;4.07;;;;;;;;;;5097395;28;20415;-70
2022/03/11 13:05:19;;;;;;;5.35;3.30;;;;;;;;;;5111687;28;20027;-70
2022/03/11 13:07:44;;;;;;;8.13;3.85;;;;;;;;;;5098091;28;20027;-71
2022/03/11 13:10:17;;;;;;;6.30;3.72;;;;;;;;;;5113558;28;20487;-70
2022/03/11 13:12:42;;;;;;;5.78;3.58;;;;;;;;;;5112884;28;20016;-69
2022/03/11 13:15:09;;;;;;;6.53;3.97;;;;;;;;;;5110882;28;20039;-69
2022/03/11 13:17:44;;;;;;;5.32;3.40;;;;;;;;;;5110847;28;20352;-70
2022/03/11 13:20:25;;;;;;;4.65;3.38;;;;;;;;;;5092806;28;20016;-69
2022/03/11 13:22:50;;;;;;;3.35;3.10;;;;;;;;;;5113756;28;20033;-69
2022/03/11 13:25:21;;;;;;;5.43;3.50;;;;;;;;;;5107339;28;20099;-70
2022/03/11 13:27:48;;;;;;;5.50;3.22;;;;;;;;;;5100800;28;20055;-70
2022/03/11 13:30:13;;;;;;;11.55;3.45;;;;;;;;;;5110577;28;20016;-70
2022/03/11 13:32:38;;;;;;;4.43;3.38;;;;;;;;;;5105755;28;20030;-70
2022/03/11 13:35:05;;;;;;;5.40;3.17;;;;;;;;;;5110221;28;20430;-70
2022/03/11 13:37:40;;;;;;;6.45;3.50;;;;;;;;;;5097192;28;20016;-70
2022/03/11 13:40:06;;;;;;;10.20;3.70;;;;;;;;;;5104465;28;20016;-71
2022/03/11 13:42:31;;;;;;;3.58;3.28;;;;;;;;;;5106476;28;20035;-73
2022/03/11 13:45:04;;;;;;;4.17;3.27;;;;;;;;;;5109832;28;20024;-70
2022/03/11 13:47:29;;;;;;;3.55;3.25;;;;;;;;;;5097250;28;20341;-72
2022/03/11 13:49:54;;;;;;;7.60;3.67;;;;;;;;;;5111761;28;20098;-71
2022/03/11 13:52:23;;;;;;;5.27;3.50;;;;;;;;;;5105745;28;20342;-71
2022/03/11 13:54:49;;;;;;;4.10;3.00;;;;;;;;;;5097530;28;20284;-71
2022/03/11 13:57:18;;;;;;;4.68;3.30;;;;;;;;;;5106395;28;20594;-70
2022/03/11 13:59:44;;;;;;;6.15;3.10;;;;;;;;;;5102492;28;20038;-70
2022/03/11 14:02:11;;;;;;;5.68;3.60;;;;;;;;;;5110601;28;20035;-72
2022/03/11 14:04:36;;;;;;;4.47;3.50;;;;;;;;;;5110537;28;20015;-70
2022/03/11 14:07:13;;;;;;;5.35;3.38;;;;;;;;;;5112396;28;20297;-73
2022/03/11 14:09:39;;;;;;;7.03;3.30;;;;;;;;;;5110823;28;20020;-72
2022/03/11 14:12:04;;;;;;;4.93;3.25;;;;;;;;;;5101503;27;20502;-71
2022/03/11 14:14:30;;;;;;;5.03;3.30;;;;;;;;;;5102796;28;20476;-72
2022/03/11 14:16:56;;;;;;;8.18;3.53;;;;;;;;;;5107850;28;20034;-72
2022/03/11 14:19:22;;;;;;;5.88;3.20;;;;;;;;;;5112461;28;20443;-71
2022/03/11 14:21:47;;;;;;;5.90;3.38;;;;;;;;;;5106261;28;20039;-72
2022/03/11 14:24:13;;;;;;;6.65;3.55;;;;;;;;;;5102426;28;20043;-69
2022/03/11 14:26:38;;;;;;;6.22;3.38;;;;;;;;;;5108484;28;20559;-71
2022/03/11 14:29:03;;;;;;;6.95;3.30;;;;;;;;;;5112417;28;20476;-71
2022/03/11 14:31:29;;;;;;;4.97;2.55;;;;;;;;;;5109950;28;20027;-71
2022/03/11 14:33:55;;;;;;;5.50;2.97;;;;;;;;;;5095029;28;20054;-70
2022/03/11 14:36:20;;;;;;;4.75;3.08;;;;;;;;;;5104632;28;20050;-69
2022/03/11 14:38:47;;;;;;;7.45;3.53;;;;;;;;;;5098063;28;20456;-71